Time;durP1;ratioP1;P1;durP2;ratioP2;P2;SDS_P1;SDS_P2;PMS_P1;PMS_P2;Temp;Humidity;BMP_temperature;BMP_pressure;BME280_temperature;BME280_humidity;BME280_pressure;Samples;Min_cycle;Max_cycle;Signal;HPM_P1;HPM_P2
2022/09/29 00:01:08;;;;;;;0.40;0.30;;;20.60;57.50;;;;;;6293353;28;20550;-67
2022/09/29 00:04:10;;;;;;;0.20;0.20;;;20.60;58.10;;;;;;6293544;28;20096;-67
2022/09/29 00:07:11;;;;;;;0.40;0.40;;;20.60;57.60;;;;;;6293650;28;20040;-67
2022/09/29 00:10:11;;;;;;;0.30;0.30;;;20.60;57.40;;;;;;6292464;28;20028;-67
2022/09/29 00:13:13;;;;;;;0.35;0.20;;;20.60;57.60;;;;;;6293424;28;20150;-67
2022/09/29 00:16:14;;;;;;;0.50;0.32;;;20.60;57.40;;;;;;6293208;28;20485;-67
2022/09/29 00:19:15;;;;;;;0.20;0.20;;;20.60;57.50;;;;;;6291626;28;20032;-67
2022/09/29 00:22:16;;;;;;;0.40;0.30;;;20.60;57.40;;;;;;6292985;28;20056;-67
2022/09/29 00:25:18;;;;;;;0.43;0.40;;;20.60;57.40;;;;;;6293765;28;20043;-67
2022/09/29 00:28:18;;;;;;;0.40;0.40;;;20.60;57.50;;;;;;6292890;28;20409;-67
2022/09/29 00:31:20;;;;;;;0.43;0.30;;;20.60;57.40;;;;;;6292329;28;20112;-67
2022/09/29 00:34:20;;;;;;;0.55;0.32;;;20.60;57.50;;;;;;6292911;28;20060;-67
2022/09/29 00:37:21;;;;;;;0.30;0.28;;;20.60;57.60;;;;;;6292959;28;20016;-67
2022/09/29 00:40:22;;;;;;;0.30;0.30;;;20.60;57.50;;;;;;6292884;28;20381;-67
2022/09/29 00:43:44;;;;;;;0.20;0.20;;;20.60;57.50;;;;;;6290995;28;20093;-66
2022/09/29 00:46:55;;;;;;;0.30;0.30;;;20.60;57.50;;;;;;6292085;28;20452;-67
2022/09/29 00:50:03;;;;;;;0.20;0.20;;;20.60;57.50;;;;;;6292551;28;20068;-67
2022/09/29 00:53:10;;;;;;;0.40;0.40;;;20.60;57.60;;;;;;6291802;28;20432;-67
2022/09/29 00:56:14;;;;;;;0.40;0.40;;;20.60;57.60;;;;;;6292503;28;20013;-67
2022/09/29 00:59:24;;;;;;;0.35;0.30;;;20.60;57.60;;;;;;6292231;28;20096;-67
2022/09/29 01:02:25;;;;;;;0.40;0.35;;;20.60;57.50;;;;;;6292137;28;20040;-67
2022/09/29 01:05:32;;;;;;;2.55;0.50;;;20.60;57.50;;;;;;6292116;28;20108;-67
2022/09/29 01:08:32;;;;;;;0.25;0.25;;;20.60;57.60;;;;;;6292216;28;20622;-67
2022/09/29 01:11:33;;;;;;;0.38;0.30;;;20.60;57.60;;;;;;6292265;28;20031;-67
2022/09/29 01:14:36;;;;;;;0.57;0.35;;;20.60;57.50;;;;;;6292042;28;20032;-67
2022/09/29 01:17:37;;;;;;;0.45;0.30;;;20.60;57.50;;;;;;6290850;28;20024;-67
2022/09/29 01:20:51;;;;;;;0.30;0.30;;;20.60;57.50;;;;;;6292008;28;20028;-67
2022/09/29 01:24:07;;;;;;;0.20;0.20;;;20.60;57.60;;;;;;6291988;28;20595;-67
2022/09/29 01:27:26;;;;;;;0.30;0.30;;;20.60;57.60;;;;;;6291818;28;20174;-67
2022/09/29 01:30:48;;;;;;;0.32;0.30;;;20.60;57.40;;;;;;6293978;28;20051;-67
2022/09/29 01:34:12;;;;;;;0.30;0.30;;;20.60;57.60;;;;;;6296736;28;20052;-67
2022/09/29 01:37:38;;;;;;;0.82;0.40;;;20.60;57.50;;;;;;6295474;28;20474;-67
2022/09/29 01:40:38;;;;;;;0.45;0.40;;;20.60;57.60;;;;;;6272193;28;20028;-67
2022/09/29 01:43:51;;;;;;;0.28;0.28;;;20.60;57.60;;;;;;6289295;28;20024;-67
2022/09/29 01:47:10;;;;;;;0.63;0.32;;;20.60;57.60;;;;;;6290574;28;20123;-67
2022/09/29 01:50:21;;;;;;;0.30;0.30;;;20.60;57.50;;;;;;6296913;28;20029;-67
2022/09/29 01:53:29;;;;;;;0.28;0.28;;;20.60;57.50;;;;;;6294954;28;20024;-67
2022/09/29 01:56:55;;;;;;;0.35;0.30;;;20.60;57.50;;;;;;6296487;28;20035;-66
2022/09/29 01:59:59;;;;;;;0.80;0.30;;;20.60;57.50;;;;;;6271616;28;20021;-67
2022/09/29 02:03:14;;;;;;;0.30;0.20;;;20.60;57.50;;;;;;6280913;28;20385;-67
2022/09/29 02:06:24;;;;;;;0.47;0.28;;;20.60;57.50;;;;;;6294888;28;20032;-67
2022/09/29 02:09:29;;;;;;;0.38;0.20;;;20.60;57.50;;;;;;6296666;28;20025;-67
2022/09/29 02:12:33;;;;;;;0.30;0.30;;;20.60;57.60;;;;;;6295605;28;20024;-67
2022/09/29 02:15:36;;;;;;;0.30;0.30;;;20.60;57.60;;;;;;6296154;28;20117;-67
2022/09/29 02:19:02;;;;;;;0.70;0.30;;;20.60;57.50;;;;;;6296089;28;20546;-67
2022/09/29 02:22:03;;;;;;;;;;;20.60;57.50;;;;;;6295784;28;20064;-69
2022/09/29 02:25:06;;;;;;;0.68;0.25;;;20.60;57.40;;;;;;6294418;28;19904;-69
2022/09/29 02:28:07;;;;;;;0.30;0.30;;;20.60;57.50;;;;;;6295919;28;20016;-67
2022/09/29 02:31:09;;;;;;;0.20;0.20;;;20.60;57.60;;;;;;6296708;28;20504;-68
2022/09/29 02:34:14;;;;;;;0.30;0.30;;;20.60;57.60;;;;;;6295647;28;20021;-69
2022/09/29 02:37:35;;;;;;;;;;;20.60;57.50;;;;;;6296280;28;20017;-69
2022/09/29 02:40:58;;;;;;;0.20;0.20;;;20.60;57.60;;;;;;6289665;28;20331;-68
2022/09/29 02:44:21;;;;;;;0.32;0.28;;;20.60;57.60;;;;;;6281518;28;20060;-68
2022/09/29 02:47:48;;;;;;;0.45;0.30;;;20.60;57.50;;;;;;6270195;28;20063;-68
2022/09/29 02:51:28;;;;;;;0.32;0.30;;;20.60;57.50;;;;;;6270476;28;20469;-69
2022/09/29 02:55:03;;;;;;;0.43;0.35;;;20.60;57.50;;;;;;6285045;28;20309;-69
2022/09/29 02:58:23;;;;;;;0.20;0.20;;;20.60;57.60;;;;;;6293440;28;20496;-69
2022/09/29 03:01:23;;;;;;;0.30;0.30;;;20.60;57.60;;;;;;6295250;28;20052;-68
2022/09/29 03:04:26;;;;;;;0.35;0.30;;;20.60;57.60;;;;;;6294813;28;20032;-68
2022/09/29 03:07:27;;;;;;;0.40;0.30;;;20.60;57.60;;;;;;6295240;28;20045;-68
2022/09/29 03:10:28;;;;;;;0.50;0.38;;;20.60;57.60;;;;;;6293875;28;20053;-69
2022/09/29 03:13:28;;;;;;;0.98;0.30;;;20.60;57.50;;;;;;6294876;28;20460;-68
2022/09/29 03:16:29;;;;;;;0.30;0.30;;;20.60;57.60;;;;;;6293907;28;20385;-70
2022/09/29 03:19:30;;;;;;;0.30;0.30;;;20.60;57.60;;;;;;6294319;28;20017;-69
2022/09/29 03:22:30;;;;;;;1.20;0.30;;;20.60;57.50;;;;;;6294905;28;20478;-69
2022/09/29 03:25:31;;;;;;;0.20;0.20;;;20.60;57.50;;;;;;6293330;28;20465;-69
2022/09/29 03:28:32;;;;;;;0.30;0.30;;;20.60;57.50;;;;;;6294381;28;20028;-69
2022/09/29 03:31:32;;;;;;;0.47;0.38;;;20.60;57.50;;;;;;6294605;28;20035;-69
2022/09/29 03:34:33;;;;;;;0.50;0.30;;;20.60;57.60;;;;;;6294249;28;20111;-70
2022/09/29 03:37:34;;;;;;;0.30;0.30;;;20.60;57.60;;;;;;6292966;28;20115;-70
2022/09/29 03:40:35;;;;;;;0.22;0.20;;;20.60;57.60;;;;;;6293285;28;20025;-69
2022/09/29 03:43:36;;;;;;;0.35;0.30;;;20.60;57.50;;;;;;6293888;28;20090;-69
2022/09/29 03:46:36;;;;;;;0.20;0.20;;;20.60;57.60;;;;;;6292816;28;20037;-69
2022/09/29 03:49:37;;;;;;;0.65;0.40;;;20.60;57.60;;;;;;6292451;28;20669;-70
2022/09/29 03:52:38;;;;;;;0.73;0.40;;;20.60;57.60;;;;;;6292106;28;20393;-69
2022/09/29 03:55:39;;;;;;;0.60;0.30;;;20.60;57.50;;;;;;6293603;28;20017;-70
2022/09/29 03:58:40;;;;;;;0.77;0.47;;;20.50;57.40;;;;;;6293631;28;20099;-70
2022/09/29 04:01:41;;;;;;;0.35;0.32;;;20.60;57.50;;;;;;6292993;28;20035;-69
2022/09/29 04:04:41;;;;;;;0.28;0.28;;;20.60;57.50;;;;;;6293899;28;20158;-70
2022/09/29 04:07:42;;;;;;;0.80;0.20;;;20.60;57.60;;;;;;6292172;28;20024;-70
2022/09/29 04:10:46;;;;;;;0.45;0.30;;;20.60;57.60;;;;;;6294147;28;20033;-70
2022/09/29 04:13:46;;;;;;;0.43;0.28;;;20.60;57.60;;;;;;6293607;28;20067;-70
2022/09/29 04:16:47;;;;;;;0.70;0.20;;;20.60;57.60;;;;;;6293554;28;20499;-69
2022/09/29 04:19:48;;;;;;;0.55;0.35;;;20.60;57.60;;;;;;6293114;28;20020;-70
2022/09/29 04:22:48;;;;;;;0.57;0.32;;;20.60;57.60;;;;;;6293455;28;20138;-70
2022/09/29 04:25:49;;;;;;;0.10;0.10;;;20.60;57.60;;;;;;6291407;28;20043;-70
2022/09/29 04:28:50;;;;;;;0.20;0.20;;;20.60;57.60;;;;;;6293053;28;20378;-70
2022/09/29 04:31:50;;;;;;;1.05;0.30;;;20.60;57.60;;;;;;6293066;28;20028;-69
2022/09/29 04:34:51;;;;;;;0.20;0.20;;;20.60;57.60;;;;;;6291713;28;20484;-69
2022/09/29 04:37:56;;;;;;;0.30;0.30;;;20.60;57.60;;;;;;6293050;28;20097;-70
2022/09/29 04:40:58;;;;;;;0.35;0.35;;;20.50;57.40;;;;;;6292861;28;20024;-69
2022/09/29 04:43:58;;;;;;;0.22;0.22;;;20.60;57.60;;;;;;6292999;28;20043;-69
2022/09/29 04:46:59;;;;;;;0.40;0.30;;;20.60;57.60;;;;;;6292147;28;20028;-70
2022/09/29 04:49:59;;;;;;;0.10;0.10;;;20.60;57.60;;;;;;6292581;28;20028;-69
2022/09/29 04:53:01;;;;;;;0.30;0.30;;;20.60;57.50;;;;;;6292338;28;20060;-70
2022/09/29 04:56:07;;;;;;;0.22;0.20;;;20.60;57.60;;;;;;6292534;28;20481;-69
2022/09/29 05:03:05;;;;;;;0.30;0.25;;;20.60;57.50;;;;;;6283443;28;20224;-69
2022/09/29 05:06:07;;;;;;;0.43;0.30;;;20.60;57.60;;;;;;6280806;28;20059;-71
2022/09/29 05:09:08;;;;;;;0.30;0.22;;;20.60;57.60;;;;;;6302041;28;20109;-71
2022/09/29 05:12:08;;;;;;;1.98;0.40;;;20.50;57.60;;;;;;6289786;28;20024;-71
2022/09/29 05:15:09;;;;;;;0.30;0.30;;;20.60;57.50;;;;;;6285914;28;20035;-70
2022/09/29 05:18:10;;;;;;;0.40;0.40;;;20.50;57.50;;;;;;6290583;28;20029;-71
2022/09/29 05:21:10;;;;;;;0.35;0.32;;;20.60;57.40;;;;;;6284842;28;20112;-71
2022/09/29 05:24:11;;;;;;;5.75;0.40;;;20.60;57.10;;;;;;6291406;28;20455;-72
2022/09/29 05:27:12;;;;;;;2.85;0.45;;;20.60;57.30;;;;;;6284666;28;20025;-71
2022/09/29 05:30:12;;;;;;;1.00;0.30;;;20.60;57.30;;;;;;6268605;28;20036;-71
2022/09/29 05:33:13;;;;;;;0.47;0.28;;;20.60;57.20;;;;;;6267483;28;20155;-71
2022/09/29 05:36:14;;;;;;;0.55;0.32;;;20.70;57.20;;;;;;6278925;28;20021;-71
2022/09/29 05:39:16;;;;;;;0.85;0.40;;;20.70;57.20;;;;;;6267163;28;20100;-71
2022/09/29 05:42:16;;;;;;;1.30;0.43;;;20.70;57.20;;;;;;6277689;28;20040;-71
2022/09/29 05:45:18;;;;;;;0.35;0.35;;;20.70;57.10;;;;;;6275332;28;20024;-71
2022/09/29 05:48:18;;;;;;;1.13;0.50;;;20.70;57.20;;;;;;6282140;28;20053;-71
2022/09/29 05:51:22;;;;;;;0.60;0.32;;;20.70;57.00;;;;;;6290976;28;20052;-71
2022/09/29 05:54:22;;;;;;;5.93;0.50;;;20.70;57.10;;;;;;6287350;28;20526;-71
2022/09/29 05:57:23;;;;;;;1.58;0.40;;;20.70;57.20;;;;;;6295057;28;20025;-71
2022/09/29 06:00:24;;;;;;;1.15;0.40;;;20.70;57.30;;;;;;6284085;28;20028;-71
2022/09/29 06:03:25;;;;;;;1.65;0.38;;;20.60;57.20;;;;;;6270312;28;20401;-71
2022/09/29 06:06:27;;;;;;;0.82;0.45;;;20.60;57.30;;;;;;6287176;28;20428;-71
2022/09/29 06:09:27;;;;;;;2.28;0.60;;;20.60;57.30;;;;;;6290480;28;20075;-71
2022/09/29 06:12:32;;;;;;;2.38;0.52;;;20.70;57.40;;;;;;6291813;28;20024;-69
2022/09/29 06:15:33;;;;;;;1.40;0.45;;;20.70;57.30;;;;;;6294054;28;20041;-71
2022/09/29 06:18:34;;;;;;;1.55;0.60;;;20.70;57.20;;;;;;6297673;28;20036;-71
2022/09/29 06:21:36;;;;;;;0.75;0.52;;;20.70;57.40;;;;;;6297933;28;20024;-71
2022/09/29 06:24:37;;;;;;;7.90;0.80;;;20.70;57.30;;;;;;6322784;28;20024;-71
2022/09/29 06:27:38;;;;;;;0.57;0.50;;;20.70;57.20;;;;;;6309188;28;20062;-71
2022/09/29 06:30:38;;;;;;;1.02;0.60;;;20.70;57.30;;;;;;6322626;28;20408;-72
2022/09/29 06:33:39;;;;;;;0.70;0.50;;;20.70;57.20;;;;;;6308403;28;20020;-71
2022/09/29 06:40:07;;;;;;;1.42;0.70;;;20.70;57.30;;;;;;6297687;28;20032;-71
2022/09/29 06:43:10;;;;;;;6.60;0.82;;;20.70;57.30;;;;;;6303675;28;20042;-71
2022/09/29 06:46:10;;;;;;;2.35;0.52;;;20.70;57.40;;;;;;6304536;28;20523;-71
2022/09/29 06:49:14;;;;;;;1.25;0.70;;;20.70;57.40;;;;;;6305394;28;20040;-71
2022/09/29 06:52:14;;;;;;;0.90;0.60;;;20.70;57.30;;;;;;6311729;28;20107;-72
2022/09/29 06:55:15;;;;;;;2.45;0.70;;;20.70;57.40;;;;;;6296752;28;20097;-71
2022/09/29 06:58:16;;;;;;;0.73;0.60;;;20.70;57.30;;;;;;6296756;28;20046;-70
2022/09/29 07:01:17;;;;;;;1.00;0.50;;;20.70;57.30;;;;;;6310206;28;20031;-71
2022/09/29 07:04:19;;;;;;;1.88;0.70;;;20.70;57.30;;;;;;6296494;28;20069;-71
2022/09/29 07:07:20;;;;;;;0.82;0.47;;;20.70;57.20;;;;;;6309442;28;20028;-71
2022/09/29 07:10:21;;;;;;;1.13;0.40;;;20.70;57.20;;;;;;6296368;28;20028;-71
2022/09/29 07:13:21;;;;;;;1.17;0.45;;;20.70;57.30;;;;;;6291632;28;20119;-72
2022/09/29 07:16:23;;;;;;;0.95;0.60;;;20.70;57.30;;;;;;6297091;28;20056;-72
2022/09/29 07:19:24;;;;;;;0.70;0.50;;;20.70;57.30;;;;;;6293249;28;20035;-71
2022/09/29 07:22:24;;;;;;;1.58;0.60;;;20.70;57.30;;;;;;6296060;28;20485;-71
2022/09/29 07:25:25;;;;;;;2.90;0.60;;;20.70;57.30;;;;;;6295796;28;20116;-71
2022/09/29 07:28:27;;;;;;;1.88;0.60;;;20.70;57.30;;;;;;6308223;28;20534;-71
2022/09/29 07:31:28;;;;;;;2.13;0.65;;;20.70;57.30;;;;;;6292233;28;20417;-71
2022/09/29 07:34:28;;;;;;;0.80;0.50;;;20.70;57.30;;;;;;6293621;28;20032;-71
2022/09/29 07:37:29;;;;;;;0.70;0.50;;;20.70;57.20;;;;;;6294931;28;20025;-71
2022/09/29 07:40:30;;;;;;;2.20;0.60;;;20.70;57.20;;;;;;6295028;28;20025;-71
2022/09/29 07:43:31;;;;;;;1.83;0.88;;;20.70;57.20;;;;;;6294075;28;20028;-72
2022/09/29 07:46:31;;;;;;;0.98;0.60;;;20.70;57.30;;;;;;6288120;28;20082;-71
2022/09/29 07:49:32;;;;;;;1.52;0.52;;;20.70;57.20;;;;;;6295050;28;20130;-71
2022/09/29 07:52:33;;;;;;;0.75;0.50;;;20.70;57.20;;;;;;6295507;28;20296;-71
2022/09/29 07:55:34;;;;;;;7.60;0.85;;;20.70;57.30;;;;;;6287032;28;20486;-71
2022/09/29 07:58:35;;;;;;;0.93;0.50;;;20.70;57.30;;;;;;6280655;28;20021;-71
2022/09/29 08:01:36;;;;;;;2.50;0.68;;;20.70;57.30;;;;;;6295697;28;20719;-71
2022/09/29 08:04:37;;;;;;;1.35;0.70;;;20.70;57.30;;;;;;6294920;28;20036;-71
2022/09/29 08:07:38;;;;;;;1.83;0.60;;;20.70;57.30;;;;;;6294887;28;20030;-71
2022/09/29 08:10:38;;;;;;;1.65;0.80;;;20.70;57.30;;;;;;6295509;28;20029;-70
2022/09/29 08:13:40;;;;;;;1.92;0.50;;;20.70;57.30;;;;;;6294967;28;20073;-68
2022/09/29 08:16:40;;;;;;;2.83;0.70;;;20.70;57.30;;;;;;6294867;28;20024;-70
2022/09/29 08:19:41;;;;;;;0.85;0.70;;;20.70;57.30;;;;;;6311893;28;20057;-69
2022/09/29 08:22:42;;;;;;;1.00;0.60;;;20.70;57.30;;;;;;6320631;28;20050;-70
2022/09/29 08:25:44;;;;;;;1.60;0.70;;;20.70;57.30;;;;;;6295973;28;20143;-70
2022/09/29 08:28:45;;;;;;;0.75;0.52;;;20.70;57.30;;;;;;6295183;28;20020;-70
2022/09/29 08:31:46;;;;;;;1.40;0.73;;;20.70;57.30;;;;;;6295066;28;20100;-70
2022/09/29 08:34:46;;;;;;;3.45;0.57;;;20.70;57.30;;;;;;6310404;28;20380;-70
2022/09/29 08:37:47;;;;;;;1.70;0.88;;;20.70;57.30;;;;;;6320144;28;20099;-70
2022/09/29 08:40:49;;;;;;;1.08;0.50;;;20.70;57.30;;;;;;6297128;28;20439;-69
2022/09/29 08:43:53;;;;;;;1.45;0.70;;;20.70;57.30;;;;;;6294805;28;20055;-69
2022/09/29 08:47:19;;;;;;;3.50;1.35;;;20.70;57.30;;;;;;6271806;28;20355;-69
2022/09/29 08:50:25;;;;;;;0.80;0.70;;;20.70;57.30;;;;;;6287351;28;20095;-69
2022/09/29 08:53:28;;;;;;;3.35;0.80;;;20.70;57.30;;;;;;6296000;28;20063;-70
2022/09/29 08:56:29;;;;;;;1.45;0.70;;;20.70;57.30;;;;;;6287811;28;20123;-70
2022/09/29 08:59:30;;;;;;;1.55;0.70;;;20.70;57.40;;;;;;6279925;28;20470;-70
2022/09/29 09:02:34;;;;;;;0.88;0.50;;;20.80;57.50;;;;;;6294956;28;20016;-70
2022/09/29 09:05:50;;;;;;;1.83;0.88;;;20.70;57.40;;;;;;6294169;28;20024;-70
2022/09/29 09:08:59;;;;;;;;;;;20.70;57.40;;;;;;6294623;28;20035;-70
2022/09/29 09:12:03;;;;;;;1.58;0.80;;;20.70;57.40;;;;;;6293761;28;19912;-70
2022/09/29 09:15:22;;;;;;;1.02;0.77;;;20.70;57.50;;;;;;6294510;28;20029;-70
2022/09/29 09:18:39;;;;;;;0.57;0.52;;;20.70;57.60;;;;;;6293225;28;20028;-70
2022/09/29 09:21:42;;;;;;;4.13;1.02;;;20.70;57.60;;;;;;6269717;28;20025;-69
2022/09/29 09:24:49;;;;;;;2.03;0.70;;;20.70;57.60;;;;;;6285704;28;20047;-69
2022/09/29 09:28:02;;;;;;;1.63;0.80;;;20.70;57.60;;;;;;6317546;28;20070;-70
2022/09/29 09:31:08;;;;;;;0.47;0.47;;;20.70;57.60;;;;;;6293103;28;20043;-70
2022/09/29 09:34:27;;;;;;;1.40;0.70;;;20.70;57.70;;;;;;6294142;28;20017;-70
2022/09/29 09:37:33;;;;;;;4.90;0.77;;;20.70;57.60;;;;;;6294143;28;20386;-69
2022/09/29 09:40:42;;;;;;;2.97;0.68;;;20.70;57.70;;;;;;6293117;28;20036;-71
2022/09/29 09:43:50;;;;;;;0.65;0.55;;;20.70;57.60;;;;;;6294266;28;20039;-70
2022/09/29 09:47:00;;;;;;;1.27;0.63;;;20.70;57.60;;;;;;6294082;28;20025;-70
2022/09/29 09:50:12;;;;;;;4.20;0.80;;;20.70;57.70;;;;;;6293968;28;20034;-69
2022/09/29 09:53:28;;;;;;;2.80;0.80;;;20.70;57.60;;;;;;6299222;28;20020;-70
2022/09/29 09:56:57;;;;;;;1.70;0.80;;;20.80;57.60;;;;;;6299562;28;20025;-70
2022/09/29 10:00:25;;;;;;;3.92;0.70;;;20.80;57.60;;;;;;6298253;28;20119;-70
2022/09/29 10:03:27;;;;;;;1.80;0.73;;;20.80;57.60;;;;;;6298944;28;20025;-70
2022/09/29 10:06:28;;;;;;;0.82;0.52;;;20.80;57.70;;;;;;6300077;28;20026;-69
2022/09/29 10:09:29;;;;;;;2.28;0.50;;;20.80;57.70;;;;;;6312542;28;20024;-69
2022/09/29 10:12:31;;;;;;;0.98;0.57;;;20.80;57.70;;;;;;6298907;28;20047;-71
2022/09/29 10:15:35;;;;;;;1.15;0.80;;;20.80;57.70;;;;;;6297549;28;20056;-71
2022/09/29 10:18:45;;;;;;;1.38;0.60;;;20.80;57.80;;;;;;6298847;28;20028;-72
2022/09/29 10:21:46;;;;;;;2.05;0.70;;;20.80;57.70;;;;;;6296979;28;20029;-72
2022/09/29 10:24:47;;;;;;;1.48;0.63;;;20.80;57.70;;;;;;6299287;28;20043;-70
2022/09/29 10:27:54;;;;;;;0.68;0.52;;;20.80;57.70;;;;;;6297589;28;20032;-70
2022/09/29 10:30:55;;;;;;;1.05;0.60;;;20.80;57.80;;;;;;6296583;28;20078;-69
2022/09/29 10:34:03;;;;;;;1.23;0.68;;;20.80;57.70;;;;;;6297807;28;20021;-70
2022/09/29 10:37:27;;;;;;;0.90;0.60;;;20.70;57.70;;;;;;6296670;28;20386;-70
2022/09/29 10:40:28;;;;;;;1.13;0.80;;;20.80;57.70;;;;;;6297564;28;20028;-70
2022/09/29 10:43:37;;;;;;;1.20;0.70;;;20.80;57.80;;;;;;6297476;28;20070;-70
2022/09/29 10:46:53;;;;;;;1.67;0.77;;;20.80;57.80;;;;;;6297109;28;20100;-70
2022/09/29 10:50:21;;;;;;;2.00;0.73;;;20.80;57.90;;;;;;6295583;28;20413;-69
2022/09/29 10:53:40;;;;;;;4.22;0.57;;;20.80;57.80;;;;;;6295636;28;20536;-70
2022/09/29 10:56:48;;;;;;;3.22;1.00;;;20.80;57.80;;;;;;6287805;28;20111;-70
2022/09/29 10:59:52;;;;;;;4.13;0.90;;;20.80;57.80;;;;;;6296516;28;20025;-70
2022/09/29 11:03:21;;;;;;;0.90;0.55;;;20.80;57.80;;;;;;6295650;28;20029;-71
2022/09/29 11:06:27;;;;;;;0.77;0.70;;;20.80;57.80;;;;;;6297392;28;20092;-71
2022/09/29 11:09:29;;;;;;;0.73;0.52;;;20.80;57.80;;;;;;6297379;28;20439;-71
2022/09/29 11:12:39;;;;;;;0.45;0.45;;;20.80;57.80;;;;;;6295798;28;20060;-70
2022/09/29 11:15:40;;;;;;;1.83;0.70;;;20.80;58.00;;;;;;6273714;28;20496;-70
2022/09/29 11:18:45;;;;;;;1.95;0.88;;;20.80;57.90;;;;;;6271036;28;20029;-70
2022/09/29 11:22:14;;;;;;;;;;;20.80;57.90;;;;;;6281031;28;20031;-70
2022/09/29 11:25:33;;;;;;;0.50;0.50;;;20.80;57.80;;;;;;6312982;28;19904;-70
2022/09/29 11:29:06;;;;;;;1.63;0.70;;;20.80;57.80;;;;;;6297158;28;20033;-70
2022/09/29 11:32:30;;;;;;;0.95;0.63;;;20.80;57.80;;;;;;6285218;28;20028;-70
2022/09/29 11:35:53;;;;;;;0.70;0.50;;;20.80;57.80;;;;;;6295590;28;20516;-71
2022/09/29 11:39:23;;;;;;;2.47;0.70;;;20.80;57.90;;;;;;6294475;28;20128;-71
2022/09/29 11:42:49;;;;;;;1.25;0.70;;;20.80;57.90;;;;;;6296165;28;20136;-70
2022/09/29 11:46:25;;;;;;;1.63;0.50;;;20.80;57.90;;;;;;6281269;28;20037;-70
2022/09/29 11:49:54;;;;;;;3.63;0.60;;;20.80;57.90;;;;;;6274251;28;20044;-70
2022/09/29 11:53:07;;;;;;;1.83;0.82;;;20.80;58.00;;;;;;6282236;28;20161;-69
2022/09/29 11:56:38;;;;;;;1.02;0.80;;;20.80;58.60;;;;;;6282965;28;20021;-70
2022/09/29 11:59:50;;;;;;;1.13;0.60;;;20.80;58.00;;;;;;6294427;28;20033;-69
2022/09/29 12:03:06;;;;;;;1.85;0.88;;;20.80;58.00;;;;;;6295547;28;20032;-69
2022/09/29 12:06:07;;;;;;;1.40;0.70;;;20.80;58.00;;;;;;6294612;28;20029;-69
2022/09/29 12:09:19;;;;;;;0.98;0.65;;;20.80;58.00;;;;;;6295454;28;20517;-70
2022/09/29 12:12:54;;;;;;;3.42;0.60;;;20.80;58.00;;;;;;6295729;28;20103;-70
2022/09/29 12:16:00;;;;;;;0.52;0.52;;;20.80;58.00;;;;;;6270008;28;20064;-69
2022/09/29 12:19:12;;;;;;;3.97;0.85;;;20.80;58.00;;;;;;6288179;28;20128;-69
2022/09/29 12:22:18;;;;;;;3.08;0.80;;;20.80;58.00;;;;;;6295070;28;20052;-69
2022/09/29 12:25:33;;;;;;;1.67;0.73;;;20.80;58.10;;;;;;6295227;28;20030;-70
2022/09/29 12:28:42;;;;;;;0.77;0.63;;;20.70;58.10;;;;;;6295096;28;20436;-70
2022/09/29 12:31:48;;;;;;;0.73;0.57;;;20.70;58.10;;;;;;6295225;28;20340;-70
2022/09/29 12:35:17;;;;;;;1.60;0.60;;;20.70;58.20;;;;;;6274768;28;20028;-70
2022/09/29 12:38:31;;;;;;;0.75;0.60;;;20.70;58.10;;;;;;6286955;28;20032;-69
2022/09/29 12:41:37;;;;;;;2.00;0.85;;;20.70;58.20;;;;;;6320010;28;20375;-69
2022/09/29 12:44:49;;;;;;;1.77;0.60;;;20.70;58.20;;;;;;6300164;28;20020;-69
2022/09/29 12:47:56;;;;;;;0.55;0.52;;;20.70;58.20;;;;;;6280189;28;20050;-70
2022/09/29 12:51:09;;;;;;;1.25;0.45;;;20.70;58.20;;;;;;6295103;28;20020;-69
2022/09/29 12:54:28;;;;;;;1.60;0.60;;;20.70;58.90;;;;;;6294667;28;20064;-70
2022/09/29 12:57:37;;;;;;;1.60;0.70;;;20.70;58.30;;;;;;6269509;28;20048;-70
2022/09/29 13:00:42;;;;;;;1.52;0.60;;;20.70;58.30;;;;;;6294843;28;20480;-70
2022/09/29 13:04:03;;;;;;;;;;;20.70;58.30;;;;;;6294253;28;20020;-70
2022/09/29 13:07:06;;;;;;;2.50;0.63;;;20.70;58.30;;;;;;6293812;28;19955;-70
2022/09/29 13:10:32;;;;;;;1.55;0.60;;;20.70;58.40;;;;;;6313764;28;20135;-69
2022/09/29 13:13:48;;;;;;;1.02;0.60;;;20.70;58.30;;;;;;6312140;28;20465;-71
2022/09/29 13:16:58;;;;;;;1.20;0.63;;;20.70;58.40;;;;;;6279372;28;20024;-69
2022/09/29 13:20:04;;;;;;;0.77;0.40;;;20.70;58.40;;;;;;6290822;28;20074;-68
2022/09/29 13:23:17;;;;;;;2.15;0.50;;;20.70;58.30;;;;;;6294531;28;20013;-69
2022/09/29 13:26:51;;;;;;;0.77;0.40;;;20.70;58.30;;;;;;6299896;28;20051;-69
2022/09/29 13:30:13;;;;;;;2.97;0.75;;;20.70;58.30;;;;;;6282638;28;20049;-69
2022/09/29 13:33:24;;;;;;;0.85;0.50;;;20.70;58.30;;;;;;6306817;28;20024;-70
2022/09/29 13:36:35;;;;;;;1.17;0.75;;;20.70;58.40;;;;;;6292355;28;20439;-69
2022/09/29 13:39:35;;;;;;;3.70;0.45;;;20.70;58.40;;;;;;6293731;28;20103;-70
2022/09/29 13:42:41;;;;;;;5.72;0.70;;;20.70;58.40;;;;;;6292047;28;20039;-70
2022/09/29 13:45:43;;;;;;;1.75;0.70;;;20.70;58.50;;;;;;6283758;28;20032;-69
2022/09/29 13:48:52;;;;;;;3.75;0.77;;;20.70;58.50;;;;;;6293139;28;20049;-69
2022/09/29 13:51:59;;;;;;;5.88;0.70;;;20.70;58.40;;;;;;6291996;28;20366;-69
2022/09/29 13:55:38;;;;;;;5.72;0.80;;;20.70;58.50;;;;;;6288261;28;20017;-69
2022/09/29 13:58:41;;;;;;;0.55;0.47;;;20.70;58.50;;;;;;6288829;28;20044;-69
2022/09/29 14:01:42;;;;;;;0.50;0.50;;;20.70;58.50;;;;;;6277224;28;20864;-70
2022/09/29 14:04:54;;;;;;;1.40;0.50;;;20.70;58.50;;;;;;6293063;28;20020;-69
2022/09/29 14:07:56;;;;;;;0.85;0.52;;;20.70;58.50;;;;;;6293152;28;20031;-70
2022/09/29 14:11:27;;;;;;;0.90;0.50;;;20.70;58.50;;;;;;6293215;28;20492;-69
2022/09/29 14:14:38;;;;;;;3.05;0.60;;;20.70;58.50;;;;;;6292669;28;20033;-67
2022/09/29 14:17:49;;;;;;;0.60;0.47;;;20.70;58.50;;;;;;6292137;28;20021;-67
2022/09/29 14:21:05;;;;;;;0.98;0.70;;;20.70;58.50;;;;;;6308645;28;20106;-67
2022/09/29 14:24:41;;;;;;;1.88;0.70;;;20.70;58.50;;;;;;6309387;28;20024;-66
2022/09/29 14:27:50;;;;;;;;;;;20.70;58.60;;;;;;6268146;28;20060;-67
2022/09/29 14:30:54;;;;;;;4.00;0.57;;;20.70;58.60;;;;;;6279739;28;20217;-68
2022/09/29 14:33:55;;;;;;;1.45;0.70;;;20.70;58.50;;;;;;6291093;28;20024;-69
2022/09/29 14:36:57;;;;;;;0.85;0.50;;;20.70;58.00;;;;;;6291063;28;20024;-68
2022/09/29 14:43:19;;;;;;;0.68;0.50;;;20.70;58.00;;;;;;6296905;28;20036;-69
2022/09/29 14:54:05;;;;;;;1.58;0.60;;;20.70;58.00;;;;;;6320802;28;20036;-70
2022/09/29 14:57:49;;;;;;;0.68;0.52;;;20.70;58.10;;;;;;6304240;28;20040;-71
2022/09/29 15:01:21;;;;;;;1.40;0.70;;;20.70;58.00;;;;;;6306094;28;20367;-70
2022/09/29 15:04:22;;;;;;;1.02;0.50;;;20.70;57.90;;;;;;6273847;28;20032;-69
2022/09/29 15:07:25;;;;;;;1.83;1.10;;;20.70;57.90;;;;;;6294068;28;20741;-69
2022/09/29 15:10:30;;;;;;;0.90;0.50;;;20.70;57.90;;;;;;6293716;28;20024;-69
2022/09/29 15:13:30;;;;;;;3.03;1.00;;;20.70;57.80;;;;;;6295667;28;20041;-68
2022/09/29 15:16:56;;;;;;;1.20;0.50;;;20.70;57.80;;;;;;6294667;28;20374;-69
2022/09/29 15:20:06;;;;;;;0.90;0.70;;;20.80;58.00;;;;;;6294342;28;20500;-69
2022/09/29 15:23:13;;;;;;;1.35;0.50;;;20.80;58.00;;;;;;6276722;28;20370;-69
2022/09/29 15:26:16;;;;;;;3.05;0.80;;;20.70;57.90;;;;;;6293269;28;20064;-68
2022/09/29 15:29:17;;;;;;;1.13;0.70;;;20.80;58.00;;;;;;6295462;28;20100;-68
2022/09/29 15:32:26;;;;;;;0.40;0.35;;;20.70;57.90;;;;;;6295008;28;20032;-69
2022/09/29 15:35:30;;;;;;;0.80;0.60;;;20.70;57.90;;;;;;6305401;28;20492;-68
2022/09/29 15:38:38;;;;;;;1.05;0.80;;;20.70;57.90;;;;;;6295085;28;20023;-68
2022/09/29 15:41:43;;;;;;;1.30;0.60;;;20.80;58.00;;;;;;6295011;28;20020;-68
2022/09/29 15:44:46;;;;;;;;;;;20.80;58.00;;;;;;6289220;28;20159;-68
2022/09/29 15:47:47;;;;;;;2.42;0.50;;;20.80;57.90;;;;;;6286653;28;19923;-68
2022/09/29 15:50:50;;;;;;;2.08;0.70;;;20.80;57.90;;;;;;6291351;28;20020;-68
2022/09/29 15:53:50;;;;;;;0.45;0.43;;;20.80;57.90;;;;;;6294213;28;20048;-68
2022/09/29 16:00:22;;;;;;;1.20;0.50;;;20.80;58.00;;;;;;6287355;28;20025;-71
2022/09/29 16:03:31;;;;;;;1.40;0.60;;;20.80;58.00;;;;;;6290783;28;20044;-70
2022/09/29 16:06:34;;;;;;;1.40;0.70;;;20.80;58.00;;;;;;6291996;28;20025;-70
2022/09/29 16:09:36;;;;;;;1.35;0.57;;;20.80;58.00;;;;;;6294485;28;20375;-70
2022/09/29 16:12:47;;;;;;;0.65;0.50;;;20.80;58.00;;;;;;6292101;28;20082;-70
2022/09/29 16:15:49;;;;;;;1.05;0.60;;;20.80;58.00;;;;;;6290155;28;20116;-70
2022/09/29 16:18:51;;;;;;;0.95;0.50;;;20.80;58.00;;;;;;6291666;28;20017;-70
2022/09/29 16:21:58;;;;;;;1.27;0.60;;;20.80;58.00;;;;;;6292266;28;20025;-70
2022/09/29 16:25:21;;;;;;;1.20;0.70;;;20.80;58.00;;;;;;6291743;28;20081;-71
2022/09/29 16:28:26;;;;;;;2.60;0.50;;;20.80;58.00;;;;;;6289995;28;20021;-70
2022/09/29 16:31:29;;;;;;;0.82;0.57;;;20.80;58.00;;;;;;6282872;28;20024;-70
2022/09/29 16:34:31;;;;;;;0.70;0.55;;;20.80;58.00;;;;;;6291339;28;20035;-70
2022/09/29 16:37:32;;;;;;;0.40;0.40;;;20.80;58.00;;;;;;6290764;28;20109;-70